createdAt,value
2023-02-11T00:27:00.330Z,2.70
2023-02-11T00:28:00.429Z,2.69
2023-02-11T00:46:01.171Z,2.64
2023-02-11T01:01:01.661Z,2.57
2023-02-11T01:20:02.303Z,2.49
2023-02-11T01:21:02.314Z,2.47
2023-02-11T01:22:02.360Z,2.45
2023-02-11T01:23:02.378Z,2.48
2023-02-11T01:24:02.545Z,2.42
2023-02-11T01:25:02.460Z,2.46
2023-02-11T01:26:02.506Z,2.44
2023-02-11T01:27:02.490Z,2.44
2023-02-11T01:28:02.581Z,2.43
2023-02-11T01:29:02.582Z,2.46
2023-02-11T01:30:02.597Z,2.46
2023-02-11T01:55:02.845Z,2.26
2023-02-11T01:56:02.859Z,2.25
2023-02-11T01:57:02.853Z,2.28
2023-02-11T02:12:03.065Z,2.29
2023-02-11T02:13:03.127Z,2.21
2023-02-11T02:14:03.082Z,2.19
2023-02-11T02:15:03.106Z,2.22
2023-02-11T02:16:03.187Z,2.16
2023-02-11T02:17:03.137Z,2.23
2023-02-11T02:18:03.163Z,2.20
2023-02-11T02:19:03.187Z,2.22
2023-02-11T02:20:03.201Z,2.23
2023-02-11T02:21:03.255Z,2.19
2023-02-11T02:22:03.261Z,2.21
2023-02-11T02:23:03.286Z,2.20
2023-02-11T02:24:03.302Z,2.20
2023-02-11T02:25:03.341Z,2.19
2023-02-11T02:26:03.370Z,2.19
2023-02-11T02:27:03.388Z,2.16
2023-02-11T02:28:03.421Z,2.25
2023-02-11T02:29:03.410Z,2.17
2023-02-11T02:30:03.421Z,2.16
2023-02-11T02:31:03.862Z,2.17
2023-02-11T02:32:03.426Z,2.17
2023-02-11T02:33:20.341Z,2.17
2023-02-11T02:35:03.424Z,2.17
2023-02-11T02:36:03.425Z,2.17
2023-02-11T02:37:03.394Z,2.11
2023-02-11T02:38:03.383Z,2.15
2023-02-11T02:39:03.359Z,2.14
2023-02-11T02:40:03.401Z,2.15
2023-02-11T02:41:03.374Z,2.14
2023-02-11T02:42:03.339Z,2.14
2023-02-11T02:43:03.338Z,2.13
2023-02-11T02:44:03.348Z,2.16
2023-02-11T02:45:03.322Z,2.10
2023-02-11T02:46:03.344Z,2.13
2023-02-11T02:47:03.380Z,2.14
2023-02-11T02:48:03.311Z,2.11
2023-02-11T02:49:03.318Z,2.10
2023-02-11T02:50:03.272Z,2.12
2023-02-11T02:51:03.264Z,2.12
2023-02-11T02:52:03.301Z,2.10
2023-02-11T02:53:03.278Z,2.10
2023-02-11T02:54:03.261Z,2.08
2023-02-11T02:55:03.284Z,2.11
2023-02-11T02:56:03.268Z,2.06
2023-02-11T02:57:03.268Z,2.08
2023-02-11T02:58:03.282Z,2.16
2023-02-11T02:59:03.246Z,2.07
2023-02-11T03:00:03.259Z,2.14
2023-02-11T03:01:03.263Z,2.14
2023-02-11T03:02:03.227Z,2.05
2023-02-11T03:03:03.211Z,2.05
2023-02-11T03:04:03.282Z,2.11
2023-02-11T03:05:03.226Z,2.07
2023-02-11T03:06:03.217Z,2.07
2023-02-11T03:07:03.223Z,2.13
2023-02-11T03:08:03.183Z,2.11
2023-02-11T03:09:03.165Z,2.09
2023-02-11T03:10:03.207Z,2.05
2023-02-11T03:11:03.208Z,1.99
2023-02-11T03:12:03.213Z,2.05
2023-02-11T03:13:03.211Z,2.03
2023-02-11T03:14:03.265Z,2.05
2023-02-11T03:15:03.242Z,2.05
2023-02-11T03:16:03.265Z,2.02
2023-02-11T03:17:03.241Z,1.97
2023-02-11T03:18:03.265Z,1.97
2023-02-11T03:19:03.262Z,1.99
2023-02-11T03:20:03.268Z,2.01
2023-02-11T03:21:03.255Z,1.98
2023-02-11T03:22:03.258Z,2.00
2023-02-11T03:23:03.287Z,2.02
2023-02-11T03:24:03.249Z,1.97
2023-02-11T03:25:03.249Z,1.96
2023-02-11T03:26:03.260Z,1.95
2023-02-11T03:27:03.262Z,1.96
2023-02-11T03:28:03.369Z,1.97
2023-02-11T03:29:03.282Z,1.97
2023-02-11T03:30:03.282Z,1.94
2023-02-11T03:31:03.407Z,2.00
2023-02-11T03:32:03.378Z,1.94
2023-02-11T03:33:03.318Z,1.98
2023-02-11T03:34:03.324Z,1.94
2023-02-11T03:35:03.344Z,1.96
2023-02-11T03:36:03.282Z,1.93
2023-02-11T03:37:03.323Z,1.92
2023-02-11T03:38:03.342Z,1.96
2023-02-11T03:39:03.303Z,1.95
2023-02-11T03:40:03.308Z,1.93
2023-02-11T03:41:03.296Z,1.92
2023-02-11T03:42:03.323Z,1.93
2023-02-11T03:43:03.317Z,1.97
2023-02-11T03:44:03.328Z,1.98
2023-02-11T03:45:03.298Z,1.95
2023-02-11T03:46:03.373Z,1.93
2023-02-11T03:47:03.336Z,1.91
2023-02-11T03:48:03.349Z,1.93
2023-02-11T03:49:03.383Z,1.92
2023-02-11T03:50:03.366Z,1.94
2023-02-11T03:51:03.375Z,1.98
2023-02-11T03:52:03.374Z,2.00
2023-02-11T03:53:03.386Z,1.97
2023-02-11T03:54:03.454Z,1.93
2023-02-11T03:55:03.453Z,1.90
2023-02-11T03:56:03.459Z,1.92
2023-02-11T03:57:03.502Z,1.91
2023-02-11T03:58:03.476Z,1.92
2023-02-11T03:59:03.478Z,1.86
2023-02-11T04:00:03.500Z,1.90
2023-02-11T04:01:03.474Z,1.88
2023-02-11T04:02:03.498Z,1.90
2023-02-11T04:03:03.587Z,1.87
2023-02-11T04:04:03.486Z,1.88
2023-02-11T04:05:03.530Z,1.88
2023-02-11T04:06:03.542Z,1.92
2023-02-11T04:07:03.543Z,1.93
2023-02-11T04:08:03.498Z,1.86
2023-02-11T04:09:03.490Z,1.86
2023-02-11T04:10:03.493Z,1.87
2023-02-11T04:11:03.453Z,1.86
2023-02-11T04:12:03.484Z,1.86
2023-02-11T04:13:03.470Z,1.85
2023-02-11T04:14:03.484Z,1.84
2023-02-11T04:15:03.476Z,1.85
2023-02-11T04:16:03.534Z,1.87
2023-02-11T04:17:03.456Z,1.81
2023-02-11T04:18:03.464Z,1.83
2023-02-11T04:19:03.447Z,1.85
2023-02-11T04:20:03.450Z,1.84
2023-02-11T04:21:03.471Z,1.84
2023-02-11T04:22:03.472Z,1.81
2023-02-11T04:23:03.445Z,1.80
2023-02-11T04:24:03.441Z,1.88
2023-02-11T04:25:03.441Z,1.85
2023-02-11T04:26:03.427Z,1.83
2023-02-11T04:27:03.471Z,1.83
2023-02-11T04:28:03.442Z,1.84
2023-02-11T04:29:03.426Z,1.84
2023-02-11T04:30:03.427Z,1.84
2023-02-11T04:31:03.494Z,1.87
2023-02-11T04:32:03.454Z,1.83
2023-02-11T04:33:03.421Z,1.82
2023-02-11T04:34:03.405Z,1.80
2023-02-11T04:35:03.430Z,1.81
2023-02-11T04:36:03.430Z,1.79
2023-02-11T04:37:03.414Z,1.79
2023-02-11T04:38:04.004Z,1.80
2023-02-11T04:39:03.388Z,1.79
2023-02-11T04:40:03.392Z,1.80
2023-02-11T04:41:03.414Z,1.81
2023-02-11T04:42:03.380Z,1.82
2023-02-11T04:43:03.425Z,1.83
2023-02-11T04:44:03.387Z,1.83
2023-02-11T04:45:03.505Z,1.80
2023-02-11T04:46:03.517Z,1.83
2023-02-11T04:47:03.370Z,1.79
2023-02-11T04:48:03.423Z,1.82
2023-02-11T04:49:03.385Z,1.81
2023-02-11T04:50:03.361Z,1.81
2023-02-11T04:51:03.385Z,1.80
2023-02-11T04:52:03.385Z,1.80
2023-02-11T04:53:03.376Z,1.82
2023-02-11T04:54:03.374Z,1.77
2023-02-11T04:55:03.368Z,1.79
2023-02-11T04:56:36.993Z,0.50
2023-02-11T04:57:36.957Z,0.50
2023-02-11T04:58:36.968Z,0.50
2023-02-11T04:59:36.955Z,0.50
2023-02-11T05:00:36.939Z,0.50
2023-02-11T05:01:36.995Z,0.51
2023-02-11T05:02:36.987Z,0.50
2023-02-11T05:03:36.951Z,0.51
2023-02-11T05:04:36.973Z,0.51
2023-02-11T05:05:36.903Z,0.51
2023-02-11T05:06:36.916Z,0.51
2023-02-11T05:07:36.919Z,0.51
2023-02-11T05:08:36.871Z,0.51
2023-02-11T05:09:36.896Z,0.51
2023-02-11T05:10:36.874Z,0.51
2023-02-11T05:11:36.866Z,0.51
2023-02-11T05:12:36.840Z,0.51
2023-02-11T05:13:36.838Z,0.53
2023-02-11T05:14:36.868Z,0.53
2023-02-11T05:15:36.831Z,0.50
2023-02-11T05:16:36.880Z,0.52
2023-02-11T05:17:36.831Z,0.51
2023-02-11T05:18:36.993Z,0.52
2023-02-11T05:19:37.124Z,0.51
2023-02-11T05:20:37.004Z,0.51
2023-02-11T05:21:36.812Z,0.52
2023-02-11T05:22:36.804Z,0.52
2023-02-11T05:23:36.795Z,0.51
2023-02-11T05:24:36.779Z,0.52
2023-02-11T05:25:36.762Z,0.51
2023-02-11T05:26:36.757Z,0.51
2023-02-11T05:27:36.742Z,0.51
2023-02-11T05:28:36.775Z,0.52
2023-02-11T05:29:36.790Z,0.51
2023-02-11T05:30:36.776Z,0.51
2023-02-11T05:31:36.740Z,0.52
2023-02-11T05:32:36.706Z,0.53
2023-02-11T05:33:36.723Z,0.53
2023-02-11T05:34:36.726Z,0.52
2023-02-11T05:35:36.694Z,0.52
2023-02-11T05:36:36.695Z,0.52
2023-02-11T05:37:36.784Z,0.53
2023-02-11T05:38:36.693Z,0.52
2023-02-11T05:39:36.674Z,0.53
2023-02-11T05:40:36.658Z,0.52
2023-02-11T05:41:36.676Z,0.53
2023-02-11T05:42:36.648Z,0.53
2023-02-11T05:43:36.698Z,0.53
2023-02-11T05:44:36.688Z,0.54
2023-02-11T05:45:36.602Z,0.52
2023-02-11T05:46:36.716Z,0.53
2023-02-11T05:47:36.651Z,0.53
2023-02-11T05:48:36.623Z,0.53
2023-02-11T05:49:36.583Z,0.53
2023-02-11T05:50:36.590Z,0.53
2023-02-11T05:51:36.598Z,0.53
2023-02-11T05:52:36.561Z,0.53
2023-02-11T05:53:36.581Z,0.53
2023-02-11T05:54:36.566Z,0.52
2023-02-11T05:55:36.555Z,0.52
2023-02-11T05:56:36.557Z,0.51
2023-02-11T05:57:36.551Z,0.52
2023-02-11T05:58:36.545Z,0.51
2023-02-11T05:59:36.539Z,0.52
2023-02-11T06:00:36.536Z,0.52
2023-02-11T06:01:36.530Z,0.52
2023-02-11T06:02:36.567Z,0.53
2023-02-11T06:03:36.572Z,0.52
2023-02-11T06:04:36.501Z,0.52
2023-02-11T06:05:36.503Z,0.51
2023-02-11T06:06:36.500Z,0.52
2023-02-11T06:07:36.460Z,0.51
2023-02-11T06:08:39.049Z,0.51
2023-02-11T06:09:36.453Z,0.51
2023-02-11T06:10:36.467Z,0.52
2023-02-11T06:11:36.494Z,0.52
2023-02-11T06:12:36.427Z,0.52
2023-02-11T06:13:36.446Z,0.52
2023-02-11T06:14:36.399Z,0.53
2023-02-11T06:15:37.262Z,0.52
2023-02-11T06:16:36.422Z,0.53
2023-02-11T06:17:36.394Z,0.52
2023-02-11T06:18:36.412Z,0.52
2023-02-11T06:19:36.377Z,0.52
2023-02-11T06:20:36.374Z,0.53
2023-02-11T06:21:43.837Z,0.54
2023-02-11T06:22:37.379Z,0.54
2023-02-11T06:23:36.361Z,0.54
2023-02-11T06:24:58.656Z,0.54
2023-02-11T06:25:37.356Z,0.54
2023-02-11T06:26:36.363Z,0.54
2023-02-11T06:27:36.324Z,0.54
2023-02-11T06:28:36.411Z,0.53
2023-02-11T06:29:36.346Z,0.55
2023-02-11T06:30:36.292Z,0.55
2023-02-11T06:31:36.412Z,0.54
2023-02-11T06:32:44.058Z,0.54
2023-02-11T06:33:37.310Z,0.54
2023-02-11T06:34:36.284Z,0.54
2023-02-11T06:35:36.285Z,0.54
2023-02-11T06:36:36.290Z,0.54
2023-02-11T06:37:36.251Z,0.53
2023-02-11T06:38:37.180Z,0.55
2023-02-11T06:39:36.236Z,0.56
2023-02-11T06:40:36.245Z,0.55
2023-02-11T06:41:36.259Z,0.55
2023-02-11T06:42:36.354Z,0.54
2023-02-11T06:43:36.231Z,0.55
2023-02-11T06:44:36.252Z,0.55
2023-02-11T06:45:36.242Z,0.54
2023-02-11T06:46:36.318Z,0.54
2023-02-11T06:47:36.195Z,0.54
2023-02-11T06:48:36.207Z,0.53
2023-02-11T06:49:36.207Z,0.54
2023-02-11T06:50:36.180Z,0.54
2023-02-11T06:51:36.214Z,0.54
2023-02-11T06:52:36.151Z,0.54
2023-02-11T06:53:36.180Z,0.55
2023-02-11T06:54:36.153Z,0.54
2023-02-11T06:55:36.158Z,0.54
2023-02-11T06:56:36.163Z,0.54
2023-02-11T06:57:36.123Z,0.54
2023-02-11T06:58:36.133Z,0.54
2023-02-11T06:59:36.106Z,0.55
2023-02-11T07:00:36.100Z,0.56
2023-02-11T07:01:36.169Z,0.54
2023-02-11T07:02:36.110Z,0.54
2023-02-11T07:03:36.076Z,0.54
2023-02-11T07:04:36.093Z,0.54
2023-02-11T07:05:36.072Z,0.54
2023-02-11T07:06:36.083Z,0.54
2023-02-11T07:07:36.090Z,0.54
2023-02-11T07:08:36.118Z,0.54
2023-02-11T13:11:36.078Z,0.54
2023-02-11T13:12:36.114Z,0.55
2023-02-11T13:13:36.056Z,0.55
2023-02-11T13:14:36.096Z,0.53
2023-02-11T13:15:36.129Z,0.54
2023-02-11T13:16:36.200Z,0.55
2023-02-11T13:17:36.139Z,0.56
2023-02-11T13:18:36.299Z,0.56
2023-02-11T13:19:36.157Z,0.55
2023-02-11T13:20:36.898Z,0.55
2023-02-11T13:21:36.153Z,0.54
2023-02-11T13:22:36.221Z,0.55
2023-02-11T13:23:36.256Z,0.56
2023-02-11T13:24:36.212Z,0.55
2023-02-11T13:25:36.243Z,0.55
2023-02-11T13:26:36.220Z,0.54
2023-02-11T13:27:36.289Z,0.54
2023-02-11T13:28:36.360Z,0.55
2023-02-11T13:29:36.274Z,0.56
2023-02-11T13:30:36.382Z,0.55
2023-02-11T13:31:36.425Z,0.55
2023-02-11T13:32:36.350Z,0.54
2023-02-11T13:33:36.356Z,0.55
2023-02-11T13:34:36.349Z,0.55
2023-02-11T13:35:36.401Z,0.56
2023-02-11T13:36:36.379Z,0.53
2023-02-11T13:37:36.401Z,0.54
2023-02-11T13:38:36.427Z,0.56
2023-02-11T13:39:36.386Z,0.57
2023-02-11T13:40:36.417Z,0.56
2023-02-11T13:41:36.439Z,0.56
2023-02-11T13:42:36.463Z,0.57
2023-02-11T13:43:36.449Z,0.57
2023-02-11T13:44:36.462Z,0.56
2023-02-11T13:45:36.534Z,0.56
2023-02-11T13:46:36.458Z,0.58
2023-02-11T13:47:36.495Z,0.59
2023-02-11T13:48:36.486Z,0.58
2023-02-11T13:49:36.505Z,0.57
2023-02-11T13:50:36.505Z,0.56
2023-02-11T13:51:36.533Z,0.59
2023-02-11T13:52:36.556Z,0.57
2023-02-11T13:53:36.560Z,0.58
2023-02-11T13:54:36.546Z,0.58
2023-02-11T13:55:36.549Z,0.56
2023-02-11T13:56:36.574Z,0.58
2023-02-11T13:57:36.612Z,0.58
2023-02-11T13:58:36.598Z,0.58
2023-02-11T13:59:36.595Z,0.56
2023-02-11T14:00:37.394Z,0.56
2023-02-11T14:01:36.646Z,0.57
2023-02-11T14:02:36.760Z,0.58
2023-02-11T14:03:36.640Z,0.58
2023-02-11T14:04:36.694Z,0.58
2023-02-11T14:05:36.673Z,0.57
2023-02-11T14:06:36.717Z,0.57
2023-02-11T14:07:36.736Z,0.57
2023-02-11T14:08:38.951Z,0.56
2023-02-11T14:09:36.794Z,0.56
2023-02-11T14:10:36.845Z,0.57
2023-02-11T14:11:37.186Z,0.58
2023-02-11T14:12:37.201Z,0.57
2023-02-11T14:13:36.923Z,0.57
2023-02-11T14:14:36.948Z,0.58
2023-02-11T14:15:36.942Z,0.57
2023-02-11T14:16:38.836Z,0.57
2023-02-11T14:17:36.940Z,0.58
2023-02-11T14:18:36.925Z,0.59
2023-02-11T14:19:37.897Z,0.57
2023-02-11T14:20:36.972Z,0.57
2023-02-11T14:21:36.995Z,0.57
2023-02-11T14:22:36.981Z,0.58
2023-02-11T14:23:36.998Z,0.58
2023-02-11T14:24:37.021Z,0.58
2023-02-11T14:25:36.998Z,0.58
2023-02-11T14:26:37.032Z,0.57
2023-02-11T14:27:37.033Z,0.58
2023-02-11T14:28:37.063Z,0.58
2023-02-11T14:29:37.058Z,0.58
2023-02-11T14:30:37.169Z,0.58
2023-02-11T14:31:37.221Z,0.56
2023-02-11T14:32:37.103Z,0.56
2023-02-11T14:33:37.077Z,0.56
2023-02-11T14:34:37.094Z,0.56
2023-02-11T14:35:37.126Z,0.57
2023-02-11T14:36:37.127Z,0.57
2023-02-11T14:37:37.226Z,0.57
2023-02-11T14:38:37.238Z,0.57
2023-02-11T14:39:37.169Z,0.58
2023-02-11T14:40:37.235Z,0.56
2023-02-11T14:41:37.219Z,0.56
2023-02-11T14:42:37.277Z,0.57
2023-02-11T14:43:37.256Z,0.58
2023-02-11T14:44:37.265Z,0.55
2023-02-11T14:45:37.278Z,0.54
2023-02-11T14:46:37.386Z,0.55
2023-02-11T14:47:37.360Z,0.56
2023-02-11T14:48:37.315Z,0.55
2023-02-11T14:49:37.347Z,0.56
2023-02-11T14:50:37.379Z,0.55
2023-02-11T14:51:37.386Z,0.54
2023-02-11T14:52:37.447Z,0.54
2023-02-11T14:53:37.903Z,0.54
2023-02-11T14:54:37.372Z,0.52
2023-02-11T14:55:37.405Z,0.53
2023-02-11T14:56:37.439Z,0.53
2023-02-11T14:57:37.500Z,0.54
2023-02-11T14:58:37.481Z,0.53
2023-02-11T14:59:37.531Z,0.53
2023-02-11T15:00:37.521Z,0.52
2023-02-11T15:01:37.583Z,0.52
2023-02-11T15:02:37.629Z,0.53
2023-02-11T15:03:37.579Z,0.54
2023-02-11T15:04:37.542Z,0.53
2023-02-11T15:05:37.556Z,0.53
2023-02-11T15:06:37.594Z,0.53
2023-02-11T15:07:37.596Z,0.51
2023-02-11T15:08:37.612Z,0.51
2023-02-11T15:09:37.644Z,0.52
2023-02-11T15:10:37.658Z,0.53
2023-02-11T15:11:37.684Z,0.54
2023-02-11T15:12:37.673Z,0.54
2023-02-11T15:13:37.696Z,0.52
2023-02-11T15:14:37.718Z,0.53
2023-02-11T15:15:37.773Z,0.53
2023-02-11T15:16:37.749Z,0.54
2023-02-11T15:17:37.784Z,0.55
2023-02-11T15:18:37.770Z,0.55
2023-02-11T15:19:37.786Z,0.54
2023-02-11T15:20:37.846Z,0.54
2023-02-11T15:21:37.829Z,0.55
2023-02-11T15:22:37.871Z,0.56
2023-02-11T15:23:37.857Z,0.57
2023-02-11T15:24:37.885Z,0.57
2023-02-11T15:25:37.891Z,0.57
2023-02-11T15:26:37.943Z,0.57
2023-02-11T15:27:37.934Z,0.57
2023-02-11T15:28:37.991Z,0.59
2023-02-11T15:29:37.988Z,0.58
2023-02-11T15:30:38.004Z,0.59
2023-02-11T15:31:38.191Z,0.58
2023-02-11T15:32:38.053Z,0.60
2023-02-11T15:33:38.061Z,0.57
2023-02-11T15:34:38.091Z,0.59
2023-02-11T15:35:38.097Z,0.58
2023-02-11T15:36:38.131Z,0.58
2023-02-11T15:37:38.148Z,0.60
2023-02-11T15:38:38.160Z,0.60
2023-02-11T15:39:38.172Z,0.61
2023-02-11T15:40:38.215Z,0.60
2023-02-11T15:41:38.255Z,0.61
2023-02-11T15:42:52.252Z,0.63
2023-02-11T15:43:39.248Z,0.63
2023-02-11T15:44:38.231Z,0.63
2023-02-11T15:45:38.250Z,0.62
2023-02-11T15:46:38.265Z,0.63
2023-02-11T15:47:38.213Z,0.65
2023-02-11T15:48:38.297Z,0.64
2023-02-11T15:49:38.192Z,0.63
2023-02-11T15:50:38.176Z,0.64
2023-02-11T15:51:38.188Z,0.65
2023-02-11T15:52:38.172Z,0.65
2023-02-11T15:53:38.158Z,0.65
2023-02-11T15:54:38.169Z,0.64
2023-02-11T15:55:38.134Z,0.65
2023-02-11T15:56:38.152Z,0.65
2023-02-11T15:57:38.139Z,0.66
2023-02-11T15:58:38.127Z,0.65
2023-02-11T15:59:38.162Z,0.66
2023-02-11T16:00:38.209Z,0.64
2023-02-11T16:01:38.212Z,0.65
2023-02-11T16:02:38.117Z,0.65
2023-02-11T16:03:38.077Z,0.65
2023-02-11T16:04:38.223Z,0.67
2023-02-11T16:05:38.088Z,0.66
2023-02-11T16:06:38.117Z,0.68
2023-02-11T16:07:38.099Z,0.67
2023-02-11T16:08:38.120Z,0.65
2023-02-11T16:09:38.138Z,0.66
2023-02-11T16:10:38.179Z,0.67
2023-02-11T16:11:38.207Z,0.66
2023-02-11T16:12:38.243Z,0.67
2023-02-11T16:13:38.253Z,0.68
2023-02-11T16:14:38.255Z,0.68
2023-02-11T16:15:38.319Z,0.67
2023-02-11T16:16:38.343Z,0.67
2023-02-11T16:17:38.331Z,0.68
2023-02-11T16:18:39.858Z,0.67
2023-02-11T16:19:38.364Z,0.67
2023-02-11T16:20:38.401Z,0.66
2023-02-11T16:21:38.402Z,0.68
2023-02-11T16:22:38.435Z,0.68
2023-02-11T16:23:38.453Z,0.69
2023-02-11T16:24:38.474Z,0.67
2023-02-11T16:25:38.478Z,0.67
2023-02-11T16:26:38.505Z,0.68
2023-02-11T16:27:38.528Z,0.68
2023-02-11T16:28:38.616Z,0.67
2023-02-11T16:29:38.562Z,0.66
2023-02-11T16:30:38.581Z,0.67
2023-02-11T16:31:38.718Z,0.67
2023-02-11T16:32:38.639Z,0.67
2023-02-11T16:33:38.642Z,0.66
2023-02-11T16:34:38.676Z,0.66
2023-02-11T16:35:38.671Z,0.68
2023-02-11T16:36:38.716Z,0.66
2023-02-11T16:37:38.728Z,0.68
2023-02-11T16:38:38.726Z,0.68
2023-02-11T16:39:38.737Z,0.66
2023-02-11T16:40:38.762Z,0.66
2023-02-11T16:41:38.818Z,0.66
2023-02-11T16:42:38.844Z,0.67
2023-02-11T16:43:38.853Z,0.68
2023-02-11T16:44:38.874Z,0.68
2023-02-11T16:45:38.910Z,0.69
2023-02-11T16:46:39.001Z,0.69
2023-02-11T16:47:38.971Z,0.67
2023-02-11T16:48:38.955Z,0.68
2023-02-11T16:49:38.974Z,0.66
2023-02-11T16:50:39.038Z,0.68
2023-02-11T16:51:39.049Z,0.68
2023-02-11T16:52:39.096Z,0.67
2023-02-11T16:53:39.075Z,0.68
2023-02-11T16:54:39.137Z,0.66
2023-02-11T16:55:39.161Z,0.69
2023-02-11T16:56:39.202Z,0.67
2023-02-11T16:57:39.201Z,0.68
2023-02-11T16:58:39.245Z,0.68
2023-02-11T16:59:39.275Z,0.66
2023-02-11T17:00:39.284Z,0.66
2023-02-11T17:01:39.300Z,0.68
2023-02-11T17:02:39.336Z,0.66
2023-02-11T17:03:39.336Z,0.67
2023-02-11T17:04:39.395Z,0.67
2023-02-11T17:05:54.309Z,0.67
2023-02-11T17:06:40.417Z,0.67
2023-02-11T17:07:39.401Z,0.67
2023-02-11T17:08:39.386Z,0.67
2023-02-11T17:09:39.376Z,0.67
2023-02-11T17:10:39.351Z,0.68
2023-02-11T17:11:39.364Z,0.69
2023-02-11T17:12:39.364Z,0.68
2023-02-11T17:13:39.325Z,0.68
2023-02-11T17:14:39.315Z,0.69
2023-02-11T17:15:39.334Z,0.67
2023-02-11T17:16:39.376Z,0.67
2023-02-11T17:17:39.282Z,0.68
2023-02-11T17:18:39.296Z,0.69
2023-02-11T17:19:39.320Z,0.68
2023-02-11T17:20:39.274Z,0.69
2023-02-11T17:21:39.292Z,0.70
2023-02-11T17:22:39.259Z,0.70
2023-02-11T17:23:39.260Z,0.70
2023-02-11T17:24:39.284Z,0.69
2023-02-11T17:25:39.256Z,0.68
2023-02-11T17:26:39.284Z,0.70
2023-02-11T17:27:39.299Z,0.71
2023-02-11T17:28:39.339Z,0.69
2023-02-11T17:29:39.356Z,0.68
2023-02-11T17:30:39.360Z,0.69
2023-02-11T17:31:39.508Z,0.67
2023-02-11T17:32:39.391Z,0.69
2023-02-11T17:33:39.404Z,0.70
2023-02-11T17:34:39.476Z,0.70
2023-02-11T17:35:39.484Z,0.70
2023-02-11T17:36:39.486Z,0.69
2023-02-11T17:37:39.543Z,0.69
2023-02-11T17:38:39.533Z,0.69
2023-02-11T17:39:39.573Z,0.70
2023-02-11T17:40:39.586Z,0.70
2023-02-11T17:41:39.586Z,0.69
2023-02-11T17:42:39.645Z,0.70
2023-02-11T17:43:39.629Z,0.71
2023-02-11T17:44:39.685Z,0.71
2023-02-11T17:45:39.761Z,0.70
2023-02-11T17:46:39.699Z,0.71
2023-02-11T17:47:39.699Z,0.70
2023-02-11T17:48:39.749Z,0.70
2023-02-11T17:49:39.752Z,0.71
2023-02-11T17:50:39.794Z,0.70
2023-02-11T17:51:39.788Z,0.71
2023-02-11T17:52:39.842Z,0.72
2023-02-11T17:53:39.856Z,0.70
2023-02-11T17:54:39.849Z,0.72
2023-02-11T17:55:39.875Z,0.71
2023-02-11T17:56:39.902Z,0.73
2023-02-11T17:57:39.902Z,0.72
2023-02-11T17:58:39.942Z,0.70
2023-02-11T17:59:39.946Z,0.71
2023-02-11T18:00:40.042Z,0.71
2023-02-11T18:01:40.989Z,0.71
2023-02-11T18:02:40.042Z,0.71
2023-02-11T18:03:40.034Z,0.70
2023-02-11T18:04:40.099Z,0.72
2023-02-11T18:05:40.074Z,0.72
2023-02-11T18:06:40.110Z,0.73
2023-02-11T18:07:40.122Z,0.71
2023-02-11T18:08:40.112Z,0.72
2023-02-11T18:09:40.151Z,0.72
2023-02-11T18:10:40.422Z,0.72
2023-02-11T18:11:40.221Z,0.70
2023-02-11T18:12:40.228Z,0.70
2023-02-11T18:13:40.249Z,0.72
2023-02-11T18:14:40.259Z,0.73
2023-02-11T18:15:40.308Z,0.70
2023-02-11T18:16:40.424Z,0.73
2023-02-11T18:17:40.351Z,0.73
2023-02-11T18:18:40.362Z,0.73
2023-02-11T18:19:40.393Z,0.72
2023-02-11T18:20:40.410Z,0.71
2023-02-11T18:21:40.527Z,0.73
2023-02-11T18:22:40.446Z,0.73
2023-02-11T18:23:40.465Z,0.73
2023-02-11T18:24:40.506Z,0.72
2023-02-11T18:25:40.708Z,0.70
2023-02-11T18:26:40.594Z,0.72
2023-02-11T18:27:40.559Z,0.73
2023-02-11T18:28:40.622Z,0.73
2023-02-11T18:29:40.630Z,0.72
2023-02-11T18:30:40.700Z,0.72
2023-02-11T18:31:40.752Z,0.71
2023-02-11T18:32:40.738Z,0.70
2023-02-11T18:33:40.755Z,0.69
2023-02-11T18:34:40.760Z,0.71
2023-02-11T18:35:40.816Z,0.72
2023-02-11T18:36:40.806Z,0.71
2023-02-11T18:37:40.842Z,0.72
2023-02-11T18:38:40.859Z,0.72
2023-02-11T18:39:40.872Z,0.72
2023-02-11T18:40:40.893Z,0.71
2023-02-11T18:41:40.905Z,0.72
2023-02-11T18:42:40.947Z,0.73
2023-02-11T18:43:40.940Z,0.72
2023-02-11T18:44:41.010Z,0.71
2023-02-11T18:45:41.015Z,0.72
2023-02-11T18:46:41.028Z,0.72
2023-02-11T18:47:41.028Z,0.72
2023-02-11T18:48:41.079Z,0.72
2023-02-11T18:49:41.088Z,0.72
2023-02-11T18:50:41.123Z,0.72
2023-02-11T18:51:41.174Z,0.72
2023-02-11T18:52:41.179Z,0.72
2023-02-11T18:53:41.188Z,0.72
2023-02-11T18:54:41.216Z,0.71
2023-02-11T18:55:41.247Z,0.72
2023-02-11T18:56:41.287Z,0.73
2023-02-11T18:57:41.310Z,0.72
2023-02-11T18:58:41.336Z,0.72
2023-02-11T18:59:41.360Z,0.73
2023-02-11T19:02:41.428Z,0.71
2023-02-11T19:03:41.462Z,0.72
2023-02-11T19:04:41.523Z,0.72
2023-02-11T19:05:41.481Z,0.72
2023-02-11T19:06:41.541Z,0.71
2023-02-11T19:07:41.584Z,0.72
2023-02-11T19:08:41.584Z,0.72
2023-02-11T19:09:41.607Z,0.71
2023-02-11T19:10:41.657Z,0.70
2023-02-11T19:11:41.655Z,0.72
2023-02-11T19:12:41.680Z,0.71
2023-02-11T19:13:41.720Z,0.72
2023-02-11T19:14:41.777Z,0.70
2023-02-11T19:15:41.801Z,0.71
2023-02-11T19:16:41.830Z,0.71
2023-02-11T19:17:41.858Z,0.71
2023-02-11T19:18:41.860Z,0.72
2023-02-11T19:19:41.915Z,0.73
2023-02-11T19:20:41.899Z,0.72
2023-02-11T19:21:41.950Z,0.73
2023-02-11T19:22:41.955Z,0.73
2023-02-11T19:23:42.016Z,0.73
2023-02-11T19:24:42.045Z,0.72
2023-02-11T19:25:42.045Z,0.71
2023-02-11T19:26:42.082Z,0.71
2023-02-11T19:27:42.098Z,0.70
2023-02-11T19:28:42.092Z,0.72
2023-02-11T19:29:42.149Z,0.73
2023-02-11T19:30:42.212Z,0.73
2023-02-11T19:31:42.344Z,0.74
2023-02-11T19:32:42.221Z,0.74
2023-02-11T19:33:42.267Z,0.75
2023-02-11T19:34:42.289Z,0.72
2023-02-11T19:35:42.311Z,0.73
2023-02-11T19:36:42.340Z,0.75
2023-02-11T19:38:42.416Z,0.72
2023-02-11T19:39:42.445Z,0.74
2023-02-11T19:40:42.492Z,0.73
2023-02-11T19:41:42.479Z,0.72
2023-02-11T19:47:42.683Z,0.75
2023-02-11T19:48:42.720Z,0.74
2023-02-11T19:49:42.739Z,0.74
2023-02-11T19:50:42.763Z,0.74
2023-02-11T19:51:42.798Z,0.74
2023-02-11T19:52:42.809Z,0.74
2023-02-11T19:53:42.838Z,0.76
2023-02-11T19:54:42.886Z,0.75
2023-02-11T19:57:42.939Z,0.75
2023-02-11T19:58:42.972Z,0.75
2023-02-11T20:00:43.013Z,0.74
2023-02-11T20:01:43.136Z,0.75
2023-02-11T20:02:43.165Z,0.75
2023-02-11T20:03:43.123Z,0.75
2023-02-11T20:04:43.154Z,0.74
2023-02-11T20:13:43.398Z,0.77
2023-02-11T20:14:43.424Z,0.77
2023-02-11T20:15:43.494Z,0.77
2023-02-11T20:16:48.732Z,0.78
2023-02-11T20:17:44.473Z,0.78
2023-02-11T20:18:43.449Z,0.78
2023-02-11T20:19:43.423Z,0.77
2023-02-11T20:20:43.444Z,0.77
2023-02-11T20:21:46.319Z,0.75
2023-02-11T20:22:43.409Z,0.79
2023-02-11T20:23:43.391Z,0.79
2023-02-11T20:24:43.393Z,0.78
2023-02-11T20:25:43.403Z,0.78
2023-02-11T20:38:43.319Z,0.77
2023-02-11T20:39:43.299Z,0.76
2023-02-11T20:40:43.251Z,0.78
2023-02-11T20:41:43.270Z,0.78
2023-02-11T20:53:43.184Z,0.79
2023-02-11T20:54:43.189Z,0.80
2023-02-11T20:55:43.189Z,0.78
2023-02-11T20:56:44.996Z,0.79
2023-02-11T20:57:43.200Z,0.79
2023-02-11T20:58:43.181Z,0.79
2023-02-11T20:59:43.156Z,0.80
2023-02-11T21:00:43.164Z,0.79
2023-02-11T21:01:43.212Z,0.80
2023-02-11T21:02:43.148Z,0.79
2023-02-11T21:03:43.163Z,0.79
2023-02-11T21:04:43.130Z,0.80
2023-02-11T21:05:43.153Z,0.79
2023-02-11T21:06:43.112Z,0.79
2023-02-11T21:07:43.125Z,0.78
2023-02-11T21:08:43.084Z,0.79
2023-02-11T21:09:43.083Z,0.78
2023-02-11T21:10:43.068Z,0.79
2023-02-11T21:11:43.054Z,0.78
2023-02-11T21:12:43.102Z,0.79
2023-02-11T21:13:43.064Z,0.79
2023-02-11T21:14:43.048Z,0.78
2023-02-11T21:15:43.050Z,0.79
2023-02-11T21:16:43.066Z,0.79
2023-02-11T21:17:43.037Z,0.79
2023-02-11T21:18:43.047Z,0.78
2023-02-11T21:19:43.013Z,0.79
2023-02-11T21:20:43.001Z,0.79
2023-02-11T21:21:42.998Z,0.79
2023-02-11T21:22:42.999Z,0.79
2023-02-11T21:23:42.993Z,0.79
2023-02-11T21:24:42.996Z,0.77
2023-02-11T21:25:43.029Z,0.79
2023-02-11T21:26:43.002Z,0.79
2023-02-11T21:27:42.997Z,0.78
2023-02-11T21:28:43.035Z,0.77
2023-02-11T21:29:53.548Z,0.80
2023-02-11T21:30:43.967Z,0.80
2023-02-11T21:31:43.043Z,0.80
2023-02-11T21:32:42.956Z,0.81
2023-02-11T21:33:42.910Z,0.82
2023-02-11T21:34:42.917Z,0.81
2023-02-11T21:35:42.907Z,0.83
2023-02-11T21:36:42.923Z,0.83
2023-02-11T21:37:42.901Z,0.84
2023-02-11T21:38:42.871Z,0.82
2023-02-11T21:39:42.876Z,0.83
2023-02-11T21:40:42.874Z,0.84
2023-02-11T21:41:42.852Z,0.84
2023-02-11T21:42:42.867Z,0.83
2023-02-11T21:43:42.834Z,0.83
2023-02-11T21:44:42.858Z,0.82
2023-02-11T21:45:42.826Z,0.79
2023-02-11T21:46:42.899Z,0.80
2023-02-11T21:47:42.828Z,0.79
2023-02-11T21:48:42.817Z,0.78
2023-02-11T21:49:42.812Z,0.79
2023-02-11T21:50:42.839Z,0.78
2023-02-11T21:51:42.840Z,0.79
2023-02-11T23:04:48.380Z,0.77
